Sweetwater, TX

7:17 AM CDT on October 30, 2014 (GMT -0500)
Lake Sweetwater | Change Station
CLOSE
Current Station
Personal Weather Station
Location: Sweetwater, TX
Elevation: 2136 ft
Nearby Weather Stations

Elev 2136 ft 32.43 °N, 100.30 °W | Updated 1 second ago

Clear
Clear
58.5 °F
Feels Like 58.5 °F
N
8.0
Wind Variable Wind from SE
Gusts 8.0 mph

Today
High -- | Low -- °F
--% Chance of Precip.
Yesterday
High -- | Low -- °F
Precip. -- in
7:57 AM 6:52 PM
Waxing Crescent, 43% visible
Pressure 30.13 in
Visibility 10.0 miles
Clouds Clear
Dew Point 54 °F
Humidity 84%
Rainfall 0.00 in
Snow Depth Not available.
UV 0 out of 12
Pollen 4.30 out of 12
Air Quality Not available.
Flu Activity Not available.
METAR KSWW 301155Z AUTO 16008KT 10SM CLR 15/13 A3013 RMK AO2 T01490130 10159 20142

More Conditions Fewer Conditions

Pressure 30.13 in
Visibility 10.0 miles
Clouds Clear
Dew Point 54 °F
Humidity 84%
Rainfall 0.00 in
Snow Depth Not available.
UV 0 out of 12
Pollen 4.30 out of 12
Air Quality Not available.
Flu Activity Not available.
METAR KSWW 301155Z AUTO 16008KT 10SM CLR 15/13 A3013 RMK AO2 T01490130 10159 20142

More Conditions Fewer Conditions

10-Day Weather Forecast

Almanac

Astronomy

Oct. 30, 2014 Rise Set
Actual Time
Civil Twilight
Nautical Twilight
Astronomical Twilight
Moon
Length of Visible Light
Length of Day
Tomorrow will be .
, % of the Moon is Illuminated

Today's Extremes

State Highs State Lows

Community

WunderPhotos

Upload Photos

1,766,349 photos uploaded!

WunderBlogs® & News

Nearby

Air Quality

  Air Quality AQ Index Pollutant
Not available.

Snow Depth

Station Depth Elevation

Earthquake Activity

City Distance Mag. Time & Date
Minimum magnitude displayed is 2.5.

Coastal Water Temperatures

Place Temperature

Nearby Weather Stations